Armour, South Dakota
Current Conditions -  °F | °C
As of 7:53 PM on Friday 21 Nov 2014 (Local Time) from KMHE Reporting Station
Clear Clear  
Wind Chill: 29°   Ceiling: Unl
Heat Index: 36°   Visibility: 10mi
Dew Point: 31°   Wind: 9mph
Humidity: 82%   Direction: 160°SSE
Pressure: 29.85"   Gusts: NA
Location:  43.32°N, 98.35°W
Report Text: KMHE 220153Z AUTO 16008KT 10SM CLR 02/M01 A2985 RMK AO2 SLP125 T00221006
Loading
Personal Weather Stations






























Interactive Weather Map New forecast layout! Learn more

10-Day Weather Forecast

Advertisements
Track Severe Weather on mobile